createdAt,value
2018-08-04T00:00:02.170Z,29.00
2018-08-04T00:02:29.601Z,29.00
2018-08-04T00:04:57.068Z,29.00
2018-08-04T00:07:24.490Z,29.00
2018-08-04T00:09:51.942Z,29.00
2018-08-04T00:12:19.438Z,29.00
2018-08-04T00:14:47.717Z,28.90
2018-08-04T00:17:15.201Z,28.90
2018-08-04T00:19:42.661Z,28.80
2018-08-04T00:22:10.139Z,28.70
2018-08-04T00:24:37.635Z,28.70
2018-08-04T00:27:05.320Z,28.70
2018-08-04T00:29:32.853Z,28.70
2018-08-04T00:32:00.336Z,28.60
2018-08-04T00:34:27.779Z,28.60
2018-08-04T00:36:55.190Z,28.60
2018-08-04T00:39:22.759Z,28.60
2018-08-04T00:41:50.187Z,28.60
2018-08-04T00:44:17.654Z,28.60
2018-08-04T00:46:45.157Z,28.60
2018-08-04T00:49:12.638Z,28.50
2018-08-04T00:51:40.105Z,28.50
2018-08-04T00:54:07.580Z,28.50
2018-08-04T00:56:34.990Z,28.40
2018-08-04T00:59:02.600Z,28.40
2018-08-04T01:01:30.009Z,28.40
2018-08-04T01:03:57.434Z,28.40
2018-08-04T01:06:24.982Z,28.30
2018-08-04T01:08:52.454Z,28.20
2018-08-04T01:11:19.995Z,28.30
2018-08-04T01:13:47.418Z,28.30
2018-08-04T01:16:15.003Z,28.10
2018-08-04T01:18:42.517Z,28.00
2018-08-04T01:21:09.928Z,28.10
2018-08-04T01:23:37.482Z,28.20
2018-08-04T01:26:05.051Z,28.10
2018-08-04T01:28:32.536Z,28.00
2018-08-04T01:30:59.954Z,28.00
2018-08-04T01:33:27.493Z,28.00
2018-08-04T01:35:54.869Z,28.00
2018-08-04T01:38:22.442Z,27.90
2018-08-04T01:40:49.946Z,27.80
2018-08-04T01:43:17.354Z,27.80
2018-08-04T01:45:44.842Z,27.70
2018-08-04T01:48:12.338Z,27.80
2018-08-04T01:50:39.784Z,27.80
2018-08-04T01:53:07.210Z,27.80
2018-08-04T01:55:34.675Z,27.80
2018-08-04T01:58:02.256Z,27.70
2018-08-04T02:00:29.755Z,27.70
2018-08-04T02:02:57.226Z,27.70
2018-08-04T02:05:24.716Z,27.70
2018-08-04T02:07:52.181Z,27.60
2018-08-04T02:10:19.767Z,27.60
2018-08-04T02:12:47.453Z,27.50
2018-08-04T02:15:15.030Z,27.50
2018-08-04T02:17:42.507Z,27.40
2018-08-04T02:20:10.059Z,27.40
2018-08-04T02:22:37.519Z,27.50
2018-08-04T02:25:05.348Z,27.50
2018-08-04T02:27:32.759Z,27.50
2018-08-04T02:30:00.129Z,27.50
2018-08-04T02:32:27.619Z,27.50
2018-08-04T02:34:55.007Z,27.50
2018-08-04T02:37:22.456Z,27.50
2018-08-04T02:39:50.111Z,27.50
2018-08-04T02:42:17.538Z,27.40
2018-08-04T02:44:45.033Z,27.30
2018-08-04T02:47:12.529Z,27.20
2018-08-04T02:49:40.055Z,27.30
2018-08-04T02:52:07.697Z,27.30
2018-08-04T02:54:35.150Z,27.30
2018-08-04T02:57:02.773Z,27.30
2018-08-04T02:59:30.192Z,27.30
2018-08-04T03:01:57.659Z,27.30
2018-08-04T03:04:25.038Z,27.30
2018-08-04T03:06:52.614Z,27.30
2018-08-04T03:09:20.466Z,27.30
2018-08-04T03:11:47.927Z,27.30
2018-08-04T03:14:15.460Z,27.30
2018-08-04T03:16:42.908Z,27.30
2018-08-04T03:19:10.377Z,27.20
2018-08-04T03:21:37.806Z,27.10
2018-08-04T03:24:05.224Z,27.10
2018-08-04T03:26:32.666Z,26.90
2018-08-04T03:29:00.146Z,26.90
2018-08-04T03:31:27.653Z,26.90
2018-08-04T03:33:55.136Z,26.80
2018-08-04T03:36:22.570Z,26.80
2018-08-04T03:38:49.997Z,26.90
2018-08-04T03:41:17.460Z,26.80
2018-08-04T03:43:44.942Z,26.70
2018-08-04T03:46:12.341Z,26.70
2018-08-04T03:48:39.797Z,26.70
2018-08-04T03:51:07.304Z,26.70
2018-08-04T03:53:34.789Z,26.60
2018-08-04T03:56:02.212Z,26.60
2018-08-04T03:58:29.684Z,26.70
2018-08-04T04:00:57.244Z,26.70
2018-08-04T04:03:24.782Z,26.70
2018-08-04T04:05:52.192Z,26.70
2018-08-04T04:08:19.761Z,26.60
2018-08-04T04:10:47.177Z,26.60
2018-08-04T04:13:14.717Z,26.50
2018-08-04T04:15:42.239Z,26.50
2018-08-04T04:18:09.605Z,26.50
2018-08-04T04:20:37.130Z,26.50
2018-08-04T04:23:04.590Z,26.60
2018-08-04T04:25:32.065Z,26.60
2018-08-04T04:27:59.495Z,26.60
2018-08-04T04:30:26.893Z,26.60
2018-08-04T04:32:54.385Z,26.70
2018-08-04T04:35:21.833Z,26.70
2018-08-04T04:37:49.270Z,26.70
2018-08-04T04:40:16.769Z,26.80
2018-08-04T04:42:44.363Z,26.90
2018-08-04T04:45:11.852Z,26.90
2018-08-04T04:47:39.323Z,26.90
2018-08-04T04:50:06.796Z,26.80
2018-08-04T04:52:34.190Z,26.80
2018-08-04T04:55:01.703Z,26.80
2018-08-04T04:57:29.156Z,26.90
2018-08-04T04:59:56.655Z,26.90
2018-08-04T05:02:24.127Z,26.90
2018-08-04T05:04:51.575Z,27.00
2018-08-04T05:07:19.155Z,27.00
2018-08-04T05:09:46.646Z,27.10
2018-08-04T05:12:14.261Z,27.00
2018-08-04T05:14:41.741Z,27.00
2018-08-04T05:17:09.165Z,27.00
2018-08-04T05:19:37.050Z,27.00
2018-08-04T05:22:04.669Z,27.10
2018-08-04T05:24:32.104Z,27.10
2018-08-04T05:26:59.642Z,27.20
2018-08-04T05:29:27.053Z,27.30
2018-08-04T05:31:54.524Z,27.40
2018-08-04T05:34:21.994Z,27.50
2018-08-04T05:36:49.532Z,27.50
2018-08-04T05:39:17.014Z,27.60
2018-08-04T05:41:44.635Z,27.60
2018-08-04T05:44:12.119Z,27.60
2018-08-04T05:46:39.553Z,27.60
2018-08-04T05:49:06.971Z,27.80
2018-08-04T05:51:34.372Z,27.80
2018-08-04T05:54:01.937Z,27.90
2018-08-04T05:56:29.436Z,27.90
2018-08-04T05:58:56.967Z,28.00
2018-08-04T06:01:24.429Z,27.90
2018-08-04T06:03:52.159Z,28.00
2018-08-04T06:06:19.618Z,28.10
2018-08-04T06:08:47.010Z,28.10
2018-08-04T06:11:14.460Z,28.10
2018-08-04T06:13:42.276Z,28.10
2018-08-04T06:16:09.935Z,28.10
2018-08-04T06:18:37.366Z,28.10
2018-08-04T06:21:04.816Z,28.20
2018-08-04T06:23:32.349Z,28.20
2018-08-04T06:25:59.851Z,28.30
2018-08-04T06:28:27.306Z,28.20
2018-08-04T06:30:54.778Z,28.20
2018-08-04T06:33:22.230Z,28.30
2018-08-04T06:35:49.793Z,28.30
2018-08-04T06:38:17.202Z,28.30
2018-08-04T06:40:44.795Z,28.40
2018-08-04T06:43:12.195Z,28.40
2018-08-04T06:45:39.569Z,28.40
2018-08-04T06:48:07.104Z,28.50
2018-08-04T06:50:34.503Z,28.50
2018-08-04T06:53:02.090Z,28.60
2018-08-04T06:55:29.651Z,28.60
2018-08-04T06:57:57.150Z,28.70
2018-08-04T07:00:24.684Z,28.70
2018-08-04T07:02:52.125Z,28.70
2018-08-04T07:05:19.803Z,28.70
2018-08-04T07:07:47.728Z,28.70
2018-08-04T07:10:15.199Z,28.80
2018-08-04T07:12:42.743Z,28.80
2018-08-04T07:15:10.170Z,28.60
2018-08-04T07:17:37.617Z,28.70
2018-08-04T07:20:05.423Z,28.80
2018-08-04T07:22:32.943Z,28.90
2018-08-04T07:25:00.435Z,28.90
2018-08-04T07:27:27.784Z,29.00
2018-08-04T07:29:55.249Z,29.10
2018-08-04T07:32:22.775Z,29.10
2018-08-04T07:34:50.223Z,29.20
2018-08-04T07:37:17.777Z,29.30
2018-08-04T07:39:45.238Z,29.40
2018-08-04T07:42:12.787Z,29.50
2018-08-04T07:44:40.262Z,29.50
2018-08-04T07:47:07.725Z,29.60
2018-08-04T07:49:35.139Z,29.60
2018-08-04T07:52:02.704Z,29.70
2018-08-04T07:54:30.195Z,29.80
2018-08-04T07:56:57.674Z,29.90
2018-08-04T07:59:25.134Z,29.90
2018-08-04T08:01:52.613Z,29.90
2018-08-04T08:04:20.149Z,30.00
2018-08-04T08:06:47.686Z,30.00
2018-08-04T08:09:15.414Z,30.00
2018-08-04T08:11:42.902Z,30.10
2018-08-04T08:14:10.354Z,30.10
2018-08-04T08:16:38.408Z,30.20
2018-08-04T08:19:05.964Z,30.20
2018-08-04T08:21:33.513Z,30.30
2018-08-04T08:24:01.121Z,30.30
2018-08-04T08:26:28.593Z,30.30
2018-08-04T08:28:56.158Z,30.50
2018-08-04T08:31:23.588Z,30.50
2018-08-04T08:33:51.097Z,30.60
2018-08-04T08:36:18.937Z,30.70
2018-08-04T08:38:46.411Z,30.80
2018-08-04T08:41:14.109Z,30.90
2018-08-04T08:43:41.663Z,30.90
2018-08-04T08:46:09.250Z,31.00
2018-08-04T08:48:37.342Z,31.00
2018-08-04T08:51:04.865Z,31.10
2018-08-04T08:53:32.591Z,31.10
2018-08-04T08:55:59.970Z,31.10
2018-08-04T08:58:27.546Z,31.20
2018-08-04T09:00:55.164Z,31.30
2018-08-04T09:03:22.740Z,31.30
2018-08-04T09:05:50.230Z,31.40
2018-08-04T09:08:17.821Z,31.50
2018-08-04T09:10:45.336Z,31.60
2018-08-04T09:13:13.863Z,31.60
2018-08-04T09:15:41.375Z,31.70
2018-08-04T09:18:08.839Z,31.80
2018-08-04T09:20:36.394Z,31.70
2018-08-04T09:23:04.002Z,31.80
2018-08-04T09:25:31.545Z,31.90
2018-08-04T09:27:59.040Z,31.90
2018-08-04T09:30:26.514Z,32.00
2018-08-04T09:32:54.068Z,32.10
2018-08-04T09:35:21.572Z,32.20
2018-08-04T09:37:49.099Z,32.30
2018-08-04T09:40:16.773Z,32.50
2018-08-04T09:42:44.940Z,32.50
2018-08-04T09:45:12.352Z,32.60
2018-08-04T09:47:40.296Z,32.80
2018-08-04T09:50:09.429Z,32.90
2018-08-04T09:52:36.984Z,33.00
2018-08-04T09:55:05.259Z,33.20
2018-08-04T09:57:32.776Z,33.40
2018-08-04T10:00:00.315Z,33.80
2018-08-04T10:02:27.703Z,34.10
2018-08-04T10:04:56.118Z,34.30
2018-08-04T10:07:23.629Z,34.70
2018-08-04T10:09:51.641Z,34.90
2018-08-04T10:12:20.655Z,35.10
2018-08-04T10:14:48.283Z,35.20
2018-08-04T10:17:15.761Z,35.50
2018-08-04T10:19:43.297Z,35.50
2018-08-04T10:22:11.413Z,35.70
2018-08-04T10:24:42.211Z,35.80
2018-08-04T10:27:09.730Z,36.00
2018-08-04T10:29:37.446Z,36.20
2018-08-04T10:32:05.277Z,36.40
2018-08-04T10:34:32.736Z,36.60
2018-08-04T10:37:00.196Z,36.60
2018-08-04T10:39:27.510Z,36.80
2018-08-04T10:41:55.070Z,36.80
2018-08-04T10:44:22.980Z,36.90
2018-08-04T10:46:50.469Z,37.10
2018-08-04T10:49:18.030Z,37.10
2018-08-04T10:51:45.828Z,37.20
2018-08-04T10:54:13.510Z,37.40
2018-08-04T10:59:16.364Z,37.50
2018-08-04T11:01:43.772Z,37.40
2018-08-04T11:04:11.313Z,37.60
2018-08-04T11:06:38.694Z,37.60
2018-08-04T11:09:07.642Z,37.60
2018-08-04T11:11:35.381Z,37.70
2018-08-04T11:14:03.463Z,37.80
2018-08-04T11:16:35.991Z,37.90
2018-08-04T11:19:03.570Z,38.20
2018-08-04T11:21:31.033Z,38.40
2018-08-04T11:23:58.512Z,38.70
2018-08-04T11:26:26.044Z,38.90
2018-08-04T11:28:53.492Z,39.10
2018-08-04T11:31:20.877Z,39.30
2018-08-04T11:33:48.634Z,39.40
2018-08-04T11:36:16.161Z,39.30
2018-08-04T11:38:43.598Z,39.40
2018-08-04T11:41:11.219Z,39.50
2018-08-04T11:43:39.531Z,39.50
2018-08-04T11:46:07.038Z,39.60
2018-08-04T11:48:34.525Z,39.50
2018-08-04T11:51:02.080Z,39.60
2018-08-04T11:53:29.512Z,39.60
2018-08-04T11:55:57.011Z,39.50
2018-08-04T11:58:24.513Z,39.60
2018-08-04T12:00:51.884Z,39.60
2018-08-04T12:03:19.342Z,39.40
2018-08-04T12:05:47.140Z,39.40
2018-08-04T12:08:14.668Z,39.60
2018-08-04T12:10:42.057Z,39.60
2018-08-04T12:13:09.435Z,39.80
2018-08-04T12:15:36.878Z,39.90
2018-08-04T12:18:04.475Z,40.00
2018-08-04T12:20:31.956Z,40.00
2018-08-04T12:22:59.411Z,40.10
2018-08-04T12:25:26.847Z,40.20
2018-08-04T12:27:54.426Z,40.30
2018-08-04T12:30:21.831Z,40.50
2018-08-04T12:32:49.220Z,40.60
2018-08-04T12:35:16.705Z,40.70
2018-08-04T12:37:44.161Z,40.70
2018-08-04T12:40:11.518Z,40.70
2018-08-04T12:42:39.534Z,40.60
2018-08-04T12:45:07.352Z,40.60
2018-08-04T12:47:34.846Z,40.70
2018-08-04T12:50:02.344Z,40.80
2018-08-04T12:52:29.750Z,40.80
2018-08-04T12:54:57.088Z,40.80
2018-08-04T12:57:24.633Z,40.90
2018-08-04T12:59:52.039Z,41.10
2018-08-04T13:02:19.789Z,41.20
2018-08-04T13:04:47.266Z,41.30
2018-08-04T13:07:14.790Z,41.60
2018-08-04T13:09:42.494Z,41.10
2018-08-04T13:12:10.041Z,41.10
2018-08-04T13:14:37.542Z,41.40
2018-08-04T13:17:05.777Z,41.40
2018-08-04T13:19:33.203Z,41.50
2018-08-04T13:22:02.089Z,41.70
2018-08-04T13:24:29.612Z,41.70
2018-08-04T13:26:57.036Z,41.70
2018-08-04T13:29:24.511Z,41.60
2018-08-04T13:31:51.962Z,41.50
2018-08-04T13:34:19.514Z,41.40
2018-08-04T13:36:47.597Z,41.70
2018-08-04T13:39:15.228Z,41.60
2018-08-04T13:41:42.685Z,41.60
2018-08-04T13:44:10.176Z,41.70
2018-08-04T13:46:38.057Z,41.60
2018-08-04T13:49:05.509Z,41.70
2018-08-04T13:51:33.005Z,41.50
2018-08-04T13:54:00.480Z,41.20
2018-08-04T13:56:28.173Z,40.90
2018-08-04T13:58:55.586Z,40.60
2018-08-04T14:01:23.064Z,40.30
2018-08-04T14:03:50.681Z,40.20
2018-08-04T14:06:18.103Z,40.10
2018-08-04T14:08:45.566Z,39.90
2018-08-04T14:11:13.009Z,39.70
2018-08-04T14:13:40.389Z,39.60
2018-08-04T14:16:07.921Z,39.40
2018-08-04T14:18:35.290Z,39.10
2018-08-04T14:21:02.801Z,39.30
2018-08-04T14:23:30.323Z,39.40
2018-08-04T14:25:57.851Z,39.30
2018-08-04T14:28:25.393Z,39.30
2018-08-04T14:30:52.779Z,39.10
2018-08-04T14:33:20.285Z,39.10
2018-08-04T14:35:47.737Z,39.00
2018-08-04T14:38:15.189Z,38.80
2018-08-04T14:40:42.579Z,38.70
2018-08-04T14:43:10.067Z,38.60
2018-08-04T14:45:37.798Z,38.40
2018-08-04T14:48:05.315Z,38.30
2018-08-04T14:50:34.845Z,38.30
2018-08-04T14:53:03.017Z,38.20
2018-08-04T14:55:30.747Z,38.00
2018-08-04T14:57:58.195Z,38.10
2018-08-04T15:00:27.162Z,38.60
2018-08-04T15:02:55.296Z,39.00
2018-08-04T15:05:22.728Z,39.50
2018-08-04T15:07:50.272Z,39.80
2018-08-04T15:10:18.844Z,40.20
2018-08-04T15:12:46.939Z,40.30
2018-08-04T15:15:14.521Z,40.40
2018-08-04T15:17:41.962Z,40.30
2018-08-04T15:20:09.371Z,40.10
2018-08-04T15:22:36.775Z,40.00
2018-08-04T15:25:06.125Z,40.00
2018-08-04T15:27:34.236Z,39.90
2018-08-04T15:30:03.087Z,39.80
2018-08-04T15:32:30.525Z,39.70
2018-08-04T15:34:58.337Z,39.80
2018-08-04T15:37:25.859Z,39.80
2018-08-04T15:39:53.386Z,39.80
2018-08-04T15:42:25.259Z,39.70
2018-08-04T15:44:52.699Z,39.70
2018-08-04T15:47:20.102Z,39.60
2018-08-04T15:49:47.548Z,39.70
2018-08-04T15:52:15.191Z,39.80
2018-08-04T15:54:43.715Z,39.80
2018-08-04T15:57:11.041Z,39.50
2018-08-04T15:59:38.415Z,39.10
2018-08-04T16:02:06.214Z,38.90
2018-08-04T16:04:33.668Z,39.10
2018-08-04T16:07:01.237Z,39.30
2018-08-04T16:09:28.634Z,39.30
2018-08-04T16:11:56.130Z,39.50
2018-08-04T16:14:23.567Z,39.40
2018-08-04T16:16:51.034Z,39.50
2018-08-04T16:19:18.328Z,39.60
2018-08-04T16:21:45.700Z,39.50
2018-08-04T16:24:13.126Z,39.50
2018-08-04T16:26:40.475Z,39.50
2018-08-04T16:29:07.863Z,39.40
2018-08-04T16:31:35.196Z,39.30
2018-08-04T16:34:02.680Z,39.30
2018-08-04T16:36:30.120Z,39.10
2018-08-04T16:38:57.534Z,39.10
2018-08-04T16:41:24.926Z,39.00
2018-08-04T16:43:52.421Z,39.00
2018-08-04T16:46:19.890Z,38.90
2018-08-04T16:48:47.322Z,38.80
2018-08-04T16:51:14.814Z,38.90
2018-08-04T16:53:42.389Z,38.70
2018-08-04T16:56:09.949Z,38.60
2018-08-04T16:58:37.415Z,38.50
2018-08-04T17:01:05.089Z,38.30
2018-08-04T17:03:32.598Z,38.30
2018-08-04T17:06:00.074Z,38.00
2018-08-04T17:08:27.712Z,38.00
2018-08-04T17:10:55.661Z,38.00
2018-08-04T17:13:23.138Z,37.90
2018-08-04T17:15:50.575Z,37.80
2018-08-04T17:18:18.243Z,37.80
2018-08-04T17:20:45.646Z,37.70
2018-08-04T17:23:12.987Z,37.60
2018-08-04T17:25:40.399Z,37.50
2018-08-04T17:28:08.233Z,37.50
2018-08-04T17:30:35.706Z,37.30
2018-08-04T17:33:03.069Z,37.30
2018-08-04T17:35:30.450Z,37.30
2018-08-04T17:37:57.920Z,37.20
2018-08-04T17:40:25.484Z,37.10
2018-08-04T17:42:52.831Z,37.10
2018-08-04T17:45:20.262Z,36.90
2018-08-04T17:47:47.712Z,36.80
2018-08-04T17:50:15.158Z,36.70
2018-08-04T17:52:42.627Z,36.70
2018-08-04T17:55:10.100Z,36.70
2018-08-04T17:57:37.464Z,36.60
2018-08-04T18:00:04.959Z,36.50
2018-08-04T18:02:32.347Z,36.50
2018-08-04T18:04:59.763Z,36.40
2018-08-04T18:07:27.288Z,36.30
2018-08-04T18:09:54.845Z,36.20
2018-08-04T18:12:22.303Z,36.10
2018-08-04T18:14:49.654Z,36.10
2018-08-04T18:17:17.141Z,36.00
2018-08-04T18:19:44.481Z,36.00
2018-08-04T18:22:11.930Z,35.90
2018-08-04T18:24:39.321Z,35.80
2018-08-04T18:27:06.850Z,35.70
2018-08-04T18:29:34.315Z,35.50
2018-08-04T18:32:01.653Z,35.20
2018-08-04T18:34:29.254Z,35.00
2018-08-04T18:36:56.673Z,34.80
2018-08-04T18:39:24.127Z,34.60
2018-08-04T18:41:51.475Z,34.40
2018-08-04T18:44:18.843Z,34.30
2018-08-04T18:46:46.367Z,34.30
2018-08-04T18:49:13.933Z,34.20
2018-08-04T18:51:41.480Z,34.20
2018-08-04T18:54:08.880Z,34.10
2018-08-04T18:56:37.196Z,34.10
2018-08-04T18:59:04.754Z,34.10
2018-08-04T19:01:32.145Z,33.90
2018-08-04T19:03:59.603Z,33.80
2018-08-04T19:06:27.102Z,33.70
2018-08-04T19:08:54.467Z,33.50
2018-08-04T19:11:21.865Z,33.40
2018-08-04T19:13:49.411Z,33.10
2018-08-04T19:16:16.940Z,32.90
2018-08-04T19:18:44.283Z,32.80
2018-08-04T19:21:11.848Z,32.70
2018-08-04T19:23:39.220Z,32.60
2018-08-04T19:26:06.590Z,32.50
2018-08-04T19:28:34.050Z,32.50
2018-08-04T19:31:01.468Z,32.50
2018-08-04T19:33:28.890Z,32.40
2018-08-04T19:35:56.236Z,32.30
2018-08-04T19:38:23.686Z,32.30
2018-08-04T19:40:51.078Z,32.20
2018-08-04T19:43:18.497Z,32.20
2018-08-04T19:45:46.088Z,32.10
2018-08-04T19:48:13.609Z,32.20
2018-08-04T19:50:41.004Z,32.20
2018-08-04T19:53:08.433Z,32.20
2018-08-04T19:55:36.563Z,32.10
2018-08-04T19:58:04.560Z,32.20
2018-08-04T20:00:32.749Z,32.20
2018-08-04T20:03:00.132Z,32.10
2018-08-04T20:05:27.597Z,32.00
2018-08-04T20:07:55.051Z,32.10
2018-08-04T20:10:29.466Z,32.00
2018-08-04T20:12:57.590Z,32.00
2018-08-04T20:15:25.077Z,32.10
2018-08-04T20:17:52.469Z,32.10
2018-08-04T20:20:20.755Z,32.20
2018-08-04T20:22:48.312Z,32.10
2018-08-04T20:25:15.726Z,32.00
2018-08-04T20:27:43.132Z,31.90
2018-08-04T20:30:10.553Z,31.90
2018-08-04T20:32:37.985Z,31.90
2018-08-04T20:35:05.528Z,31.90
2018-08-04T20:37:32.961Z,31.90
2018-08-04T20:40:00.358Z,31.90
2018-08-04T20:42:27.824Z,31.80
2018-08-04T20:44:55.604Z,31.80
2018-08-04T20:47:23.059Z,31.90
2018-08-04T20:49:50.486Z,31.90
2018-08-04T20:52:17.930Z,31.90
2018-08-04T20:54:45.445Z,31.80
2018-08-04T20:57:12.956Z,31.80
2018-08-04T20:59:40.358Z,31.80
2018-08-04T21:02:08.178Z,31.80
2018-08-04T21:04:36.104Z,31.70
2018-08-04T21:07:04.238Z,31.60
2018-08-04T21:09:32.432Z,31.50
2018-08-04T21:11:59.933Z,31.60
2018-08-04T21:14:28.052Z,31.60
2018-08-04T21:16:56.490Z,31.60
2018-08-04T21:19:24.453Z,31.50
2018-08-04T21:21:51.839Z,31.60
2018-08-04T21:24:20.398Z,31.60
2018-08-04T21:26:49.507Z,31.50
2018-08-04T21:29:17.023Z,31.50
2018-08-04T21:31:44.513Z,31.50
2018-08-04T21:34:13.572Z,31.50
2018-08-04T21:36:41.971Z,31.50
2018-08-04T21:39:12.167Z,31.40
2018-08-04T21:41:39.660Z,31.40
2018-08-04T21:44:07.355Z,31.40
2018-08-04T21:46:38.876Z,31.40
2018-08-04T21:49:06.323Z,31.40
2018-08-04T21:51:33.694Z,31.30
2018-08-04T21:54:01.084Z,31.30
2018-08-04T21:56:28.575Z,31.30
2018-08-04T21:58:56.042Z,31.30
2018-08-04T22:01:23.561Z,31.20
2018-08-04T22:03:50.993Z,31.20
2018-08-04T22:06:18.552Z,31.20
2018-08-04T22:08:57.399Z,31.20
2018-08-04T22:11:24.900Z,31.10
2018-08-04T22:13:52.475Z,31.10
2018-08-04T22:16:19.907Z,31.10
2018-08-04T22:18:47.523Z,31.10
2018-08-04T22:21:15.057Z,31.10
2018-08-04T22:23:42.531Z,31.10
2018-08-04T22:26:11.180Z,31.10
2018-08-04T22:28:38.605Z,31.00
2018-08-04T22:31:06.097Z,31.00
2018-08-04T22:33:33.586Z,31.00
2018-08-04T22:36:01.365Z,31.00
2018-08-04T22:38:28.812Z,31.10
2018-08-04T22:40:56.638Z,31.00
2018-08-04T22:43:24.076Z,31.00
2018-08-04T22:46:00.872Z,30.90
2018-08-04T22:48:28.321Z,30.80
2018-08-04T22:50:55.860Z,30.80
2018-08-04T22:53:23.355Z,30.80
2018-08-04T22:55:50.803Z,30.80
2018-08-04T22:58:18.240Z,30.70
2018-08-04T23:00:45.733Z,30.70
2018-08-04T23:03:13.911Z,30.80
2018-08-04T23:05:41.424Z,30.70
2018-08-04T23:08:09.817Z,30.60
2018-08-04T23:10:37.809Z,30.70
2018-08-04T23:13:05.446Z,30.60
2018-08-04T23:15:32.954Z,30.60
2018-08-04T23:18:00.471Z,30.60
2018-08-04T23:20:28.223Z,30.50
2018-08-04T23:22:57.529Z,30.50
2018-08-04T23:25:25.085Z,30.40
2018-08-04T23:27:52.723Z,30.40
2018-08-04T23:30:21.050Z,30.40
2018-08-04T23:32:49.149Z,30.30
2018-08-04T23:35:16.562Z,30.30
2018-08-04T23:37:44.046Z,30.30
2018-08-04T23:40:11.524Z,30.20
2018-08-04T23:42:38.981Z,30.30
2018-08-04T23:45:06.911Z,30.20
2018-08-04T23:47:34.278Z,30.20
2018-08-04T23:50:02.021Z,30.20
2018-08-04T23:52:29.534Z,30.10
2018-08-04T23:54:56.983Z,30.10
2018-08-04T23:57:24.515Z,30.00
2018-08-04T23:59:52.056Z,30.10
